Time;durP1;ratioP1;P1;durP2;ratioP2;P2;SDS_P1;SDS_P2;PMS_P1;PMS_P2;Temp;Humidity;BMP_temperature;BMP_pressure;BME280_temperature;BME280_humidity;BME280_pressure;Samples;Min_cycle;Max_cycle;Signal;HPM_P1;HPM_P2
2022/08/31 00:05:48;;;;;;;8.40;2.28;;;16.30;99.90;;;;;;5073815;28;20118;-55
2022/08/31 00:08:14;;;;;;;8.85;2.22;;;16.30;99.90;;;;;;5073609;28;20506;-56
2022/08/31 00:10:40;;;;;;;7.18;2.15;;;16.30;99.90;;;;;;5073685;28;20024;-55
2022/08/31 00:13:07;;;;;;;5.68;1.90;;;16.30;99.90;;;;;;5073277;28;20074;-55
2022/08/31 00:15:34;;;;;;;6.03;1.92;;;16.30;99.90;;;;;;5073592;28;20021;-56
2022/08/31 00:18:00;;;;;;;5.70;1.90;;;16.30;99.90;;;;;;5073370;28;20062;-55
2022/08/31 00:20:27;;;;;;;7.03;1.98;;;16.30;99.90;;;;;;5073442;28;20450;-56
2022/08/31 00:22:52;;;;;;;5.85;2.10;;;16.30;99.90;;;;;;5073421;28;20107;-55
2022/08/31 00:25:18;;;;;;;8.05;2.50;;;16.30;99.90;;;;;;5073195;28;20086;-55
2022/08/31 00:27:44;;;;;;;10.25;2.60;;;16.30;99.90;;;;;;5073326;28;20107;-55
2022/08/31 00:30:11;;;;;;;9.35;2.00;;;16.20;99.90;;;;;;5073173;28;20476;-55
2022/08/31 00:32:37;;;;;;;7.30;2.13;;;16.20;99.90;;;;;;5072705;28;20475;-55
2022/08/31 00:35:05;;;;;;;6.32;1.70;;;16.20;99.90;;;;;;5072910;28;20071;-56
2022/08/31 00:37:31;;;;;;;3.50;1.70;;;16.20;99.90;;;;;;5073062;28;20028;-56
2022/08/31 00:39:56;;;;;;;5.25;1.85;;;16.20;99.90;;;;;;5073234;28;20399;-56
2022/08/31 00:42:22;;;;;;;7.10;1.80;;;16.10;99.90;;;;;;5071737;28;20025;-55
2022/08/31 00:44:48;;;;;;;5.18;1.95;;;16.10;99.90;;;;;;5073160;28;20025;-56
2022/08/31 00:47:14;;;;;;;5.72;1.75;;;16.10;99.90;;;;;;5072927;28;20127;-55
2022/08/31 00:49:42;;;;;;;3.55;1.40;;;16.10;99.90;;;;;;5072796;28;20025;-56
2022/08/31 00:52:14;;;;;;;4.40;1.92;;;16.10;99.90;;;;;;5072627;28;20125;-55
2022/08/31 00:54:48;;;;;;;5.65;1.77;;;16.10;99.90;;;;;;5072942;28;20020;-55
2022/08/31 00:57:14;;;;;;;5.35;1.65;;;16.00;99.90;;;;;;5072933;28;20306;-56
2022/08/31 00:59:43;;;;;;;4.75;1.60;;;16.00;99.90;;;;;;5072666;28;20100;-57
2022/08/31 01:02:09;;;;;;;5.53;1.85;;;16.00;99.90;;;;;;5072494;28;20052;-56
2022/08/31 01:04:34;;;;;;;4.72;1.60;;;15.90;99.90;;;;;;5072000;28;20454;-55
2022/08/31 01:07:02;;;;;;;7.93;1.90;;;15.90;99.90;;;;;;5072343;28;20048;-55
2022/08/31 01:09:35;;;;;;;6.40;1.70;;;15.90;99.90;;;;;;5072608;28;20124;-56
2022/08/31 01:12:01;;;;;;;4.63;1.80;;;15.90;99.90;;;;;;5072673;28;20089;-56
2022/08/31 01:14:27;;;;;;;5.40;1.80;;;15.80;99.90;;;;;;5072386;28;20032;-56
2022/08/31 01:16:54;;;;;;;6.68;1.55;;;15.80;99.90;;;;;;5072369;28;20013;-56
2022/08/31 01:19:32;;;;;;;4.75;1.70;;;15.80;99.90;;;;;;5072187;28;20028;-55
2022/08/31 01:22:29;;;;;;;5.38;1.90;;;15.80;99.90;;;;;;5072073;28;20028;-56
2022/08/31 01:24:56;;;;;;;8.23;1.80;;;15.70;99.90;;;;;;5072002;28;20075;-56
2022/08/31 01:27:25;;;;;;;7.60;1.80;;;15.70;99.90;;;;;;5072199;28;20028;-56
2022/08/31 01:29:51;;;;;;;5.05;1.88;;;15.60;99.90;;;;;;5071950;28;20027;-56
2022/08/31 01:32:16;;;;;;;7.10;1.77;;;15.60;99.90;;;;;;5071856;28;20021;-56
2022/08/31 01:34:42;;;;;;;4.40;1.42;;;15.60;99.90;;;;;;5071887;28;20059;-57
2022/08/31 01:37:08;;;;;;;8.05;1.80;;;15.50;99.90;;;;;;5071776;28;20028;-57
2022/08/31 01:39:34;;;;;;;3.30;1.38;;;15.50;99.90;;;;;;5071852;28;20036;-56
2022/08/31 01:41:59;;;;;;;5.82;1.77;;;15.40;99.90;;;;;;5071666;28;20475;-56
2022/08/31 01:44:26;;;;;;;8.77;1.60;;;15.40;99.90;;;;;;5071618;28;20048;-56
2022/08/31 01:46:53;;;;;;;5.18;1.58;;;15.40;99.90;;;;;;5071703;28;20020;-56
2022/08/31 01:49:21;;;;;;;4.55;1.73;;;15.40;99.90;;;;;;5071894;28;20028;-56
2022/08/31 01:51:48;;;;;;;5.25;1.50;;;15.30;99.90;;;;;;5071406;28;20415;-56
2022/08/31 01:54:14;;;;;;;6.18;1.60;;;15.30;99.90;;;;;;5071562;28;20075;-57
2022/08/31 01:56:43;;;;;;;7.88;1.85;;;15.30;99.90;;;;;;5071449;28;20423;-55
2022/08/31 01:59:11;;;;;;;5.45;1.65;;;15.30;99.90;;;;;;5071596;28;20013;-56
2022/08/31 02:01:41;;;;;;;4.75;1.50;;;15.30;99.90;;;;;;5071239;28;20024;-56
2022/08/31 02:04:10;;;;;;;3.55;1.33;;;15.30;99.90;;;;;;5071203;28;20024;-57
2022/08/31 02:06:36;;;;;;;2.85;1.40;;;15.20;99.90;;;;;;5071028;28;20040;-56
2022/08/31 02:09:04;;;;;;;6.75;1.40;;;15.20;99.90;;;;;;5069899;28;20467;-57
2022/08/31 02:11:30;;;;;;;3.85;1.63;;;15.20;99.90;;;;;;5071089;28;20471;-57
2022/08/31 02:13:56;;;;;;;5.22;1.30;;;15.20;99.90;;;;;;5071562;28;20035;-57
2022/08/31 02:16:23;;;;;;;5.88;1.30;;;15.10;99.90;;;;;;5071022;28;20039;-55
2022/08/31 02:18:49;;;;;;;4.95;1.50;;;15.10;99.90;;;;;;5070733;28;20111;-57
2022/08/31 02:21:14;;;;;;;4.47;1.38;;;15.00;99.90;;;;;;5070486;28;20036;-57
2022/08/31 02:23:41;;;;;;;2.60;1.15;;;15.00;99.90;;;;;;5070781;28;20414;-54
2022/08/31 02:26:08;;;;;;;3.60;1.25;;;15.00;99.90;;;;;;5071013;28;20037;-57
2022/08/31 02:28:34;;;;;;;4.75;1.30;;;15.00;99.90;;;;;;5071151;28;20020;-55
2022/08/31 02:31:00;;;;;;;3.50;1.35;;;14.90;99.90;;;;;;5070999;28;20028;-56
2022/08/31 02:33:25;;;;;;;4.60;1.60;;;14.90;99.90;;;;;;5070940;28;20029;-56
2022/08/31 02:35:52;;;;;;;6.75;1.58;;;14.90;99.90;;;;;;5071035;28;20025;-56
2022/08/31 02:38:17;;;;;;;4.47;1.55;;;14.90;99.90;;;;;;5070515;28;20129;-57
2022/08/31 02:40:43;;;;;;;6.05;1.40;;;14.90;99.90;;;;;;5070524;28;20066;-56
2022/08/31 02:43:10;;;;;;;3.35;1.60;;;14.90;99.90;;;;;;5071015;28;20373;-56
2022/08/31 02:45:37;;;;;;;3.28;1.40;;;14.90;99.90;;;;;;5070829;28;20048;-57
2022/08/31 02:48:05;;;;;;;6.47;1.60;;;14.90;99.90;;;;;;5070905;28;20031;-57
2022/08/31 02:50:31;;;;;;;9.32;1.50;;;14.90;99.90;;;;;;5070845;28;20094;-56
2022/08/31 02:52:57;;;;;;;3.47;1.40;;;14.90;99.90;;;;;;5070737;28;20040;-56
2022/08/31 02:55:24;;;;;;;3.63;1.40;;;14.80;99.90;;;;;;5070805;28;20644;-57
2022/08/31 02:57:51;;;;;;;4.32;1.45;;;14.80;99.90;;;;;;5070886;28;20016;-56
2022/08/31 03:00:20;;;;;;;6.95;1.60;;;14.70;99.90;;;;;;5070770;28;20039;-57
2022/08/31 03:02:47;;;;;;;4.68;1.23;;;14.80;99.90;;;;;;5070691;28;20111;-56
2022/08/31 03:05:12;;;;;;;3.38;1.20;;;14.80;99.90;;;;;;5070620;28;20033;-56
2022/08/31 03:07:39;;;;;;;3.03;1.23;;;14.80;99.90;;;;;;5070649;28;20039;-55
2022/08/31 03:10:07;;;;;;;5.53;1.58;;;14.70;99.90;;;;;;5070466;28;20020;-57
2022/08/31 03:12:34;;;;;;;3.00;1.30;;;14.70;99.90;;;;;;5070253;28;20029;-57
2022/08/31 03:15:00;;;;;;;6.63;2.67;;;14.70;99.90;;;;;;5069996;28;20089;-55
2022/08/31 03:17:26;;;;;;;3.25;1.30;;;14.70;99.90;;;;;;5070669;28;20016;-56
2022/08/31 03:20:00;;;;;;;3.45;1.30;;;14.70;99.90;;;;;;5070478;28;20050;-57
2022/08/31 03:22:29;;;;;;;3.92;1.25;;;14.60;99.90;;;;;;5055743;28;20499;-56
2022/08/31 03:24:55;;;;;;;7.13;1.80;;;14.60;99.90;;;;;;5070524;28;20491;-56
2022/08/31 03:27:23;;;;;;;5.55;1.75;;;14.60;99.90;;;;;;5070562;28;20059;-56
2022/08/31 03:29:50;;;;;;;5.95;1.63;;;14.60;99.90;;;;;;5071741;28;20108;-54
2022/08/31 03:32:16;;;;;;;5.28;1.60;;;14.60;99.90;;;;;;5074305;28;20028;-56
2022/08/31 03:34:42;;;;;;;5.35;1.50;;;14.60;99.90;;;;;;5074258;28;20174;-54
2022/08/31 03:37:08;;;;;;;5.97;1.52;;;14.60;99.90;;;;;;5074040;28;20539;-56
2022/08/31 03:39:33;;;;;;;4.75;2.13;;;14.60;99.90;;;;;;5074071;28;20013;-56
2022/08/31 03:41:59;;;;;;;3.63;1.33;;;14.50;99.90;;;;;;5074030;28;20037;-55
2022/08/31 03:44:25;;;;;;;6.28;1.77;;;14.50;99.90;;;;;;5073946;28;20102;-56
2022/08/31 03:46:54;;;;;;;3.92;1.40;;;14.50;99.90;;;;;;5074050;28;20035;-55
2022/08/31 03:49:20;;;;;;;4.00;1.30;;;14.50;99.90;;;;;;5073870;28;20055;-55
2022/08/31 03:51:46;;;;;;;5.70;1.40;;;14.40;99.90;;;;;;5073405;28;20127;-55
2022/08/31 03:54:12;;;;;;;6.38;1.70;;;14.40;99.90;;;;;;5073510;28;20428;-55
2022/08/31 03:56:38;;;;;;;4.93;1.45;;;14.50;99.90;;;;;;5073989;28;20036;-56
2022/08/31 03:59:05;;;;;;;8.25;1.52;;;14.40;99.90;;;;;;5074256;28;20032;-56
2022/08/31 04:01:31;;;;;;;4.57;1.40;;;14.40;99.90;;;;;;5073426;28;20020;-55
2022/08/31 04:03:57;;;;;;;4.10;1.65;;;14.40;99.90;;;;;;5073839;28;20498;-57
2022/08/31 04:06:22;;;;;;;4.60;1.45;;;14.40;99.90;;;;;;5073724;28;20033;-55
2022/08/31 04:08:48;;;;;;;6.13;1.52;;;14.40;99.90;;;;;;5073683;28;20090;-56
2022/08/31 04:11:16;;;;;;;3.90;1.40;;;14.30;99.90;;;;;;5073222;28;20033;-55
2022/08/31 04:13:42;;;;;;;5.78;1.48;;;14.30;99.90;;;;;;5073580;28;20083;-55
2022/08/31 04:16:11;;;;;;;5.10;1.40;;;14.30;99.90;;;;;;5073366;28;20369;-55
2022/08/31 04:18:42;;;;;;;4.38;1.50;;;14.30;99.90;;;;;;5073351;28;20016;-55
2022/08/31 04:21:20;;;;;;;3.05;1.30;;;14.20;99.90;;;;;;5073463;28;20020;-56
2022/08/31 04:23:47;;;;;;;4.38;1.40;;;14.20;99.90;;;;;;5073378;28;20103;-55
2022/08/31 04:26:27;;;;;;;5.63;1.98;;;14.10;99.90;;;;;;5072025;28;20037;-55
2022/08/31 04:28:54;;;;;;;4.53;1.40;;;14.10;99.90;;;;;;5073126;28;20099;-55
2022/08/31 04:31:22;;;;;;;3.22;1.50;;;14.10;99.90;;;;;;5072929;28;20108;-55
2022/08/31 04:33:48;;;;;;;3.90;1.20;;;14.10;99.90;;;;;;5072772;28;20166;-56
2022/08/31 04:36:18;;;;;;;3.45;1.38;;;14.10;99.90;;;;;;5073215;28;20435;-56
2022/08/31 04:38:45;;;;;;;4.28;1.40;;;14.10;99.90;;;;;;5072996;28;20071;-56
2022/08/31 04:41:14;;;;;;;3.67;1.45;;;14.10;99.90;;;;;;5072618;28;20047;-55
2022/08/31 04:43:44;;;;;;;3.78;1.40;;;14.10;99.90;;;;;;5072964;28;20502;-55
2022/08/31 04:46:10;;;;;;;5.70;1.58;;;14.10;99.90;;;;;;5072834;28;20122;-56
2022/08/31 04:48:36;;;;;;;6.97;1.63;;;14.00;99.90;;;;;;5072899;28;20063;-55
2022/08/31 04:51:07;;;;;;;5.72;1.63;;;14.10;99.90;;;;;;5072374;28;20083;-55
2022/08/31 04:53:33;;;;;;;6.25;1.50;;;14.10;99.90;;;;;;5071387;28;20337;-56
2022/08/31 04:56:06;;;;;;;3.15;1.40;;;14.10;99.90;;;;;;5072552;28;20032;-55
2022/08/31 04:58:32;;;;;;;2.95;1.27;;;14.10;99.90;;;;;;5072997;28;20025;-56
2022/08/31 05:00:58;;;;;;;6.57;2.05;;;14.10;99.90;;;;;;5072305;28;20036;-55
2022/08/31 05:03:24;;;;;;;4.72;1.38;;;14.10;99.90;;;;;;5072664;28;20028;-56
2022/08/31 05:05:51;;;;;;;3.90;1.40;;;14.10;99.90;;;;;;5072435;28;20039;-56
2022/08/31 05:08:18;;;;;;;4.32;1.70;;;14.10;99.90;;;;;;5072366;28;20036;-55
2022/08/31 05:10:44;;;;;;;4.43;1.40;;;14.10;99.90;;;;;;5072186;28;20025;-55
2022/08/31 05:13:11;;;;;;;4.72;1.60;;;14.10;99.90;;;;;;5071930;28;20531;-55
2022/08/31 05:15:41;;;;;;;4.85;1.63;;;14.10;99.90;;;;;;5072091;28;20387;-56
2022/08/31 05:18:07;;;;;;;4.43;1.45;;;14.10;99.90;;;;;;5072300;28;20036;-56
2022/08/31 05:20:33;;;;;;;2.03;1.38;;;14.20;99.90;;;;;;5070810;28;20024;-55
2022/08/31 05:22:58;;;;;;;5.40;1.80;;;14.20;99.90;;;;;;5072188;28;20027;-56
2022/08/31 05:25:24;;;;;;;6.65;1.60;;;14.30;99.90;;;;;;5071966;28;20036;-55
2022/08/31 05:27:54;;;;;;;4.80;1.55;;;14.30;99.90;;;;;;5072236;28;20103;-56
2022/08/31 05:30:20;;;;;;;5.45;1.70;;;14.30;99.90;;;;;;5071824;28;20475;-55
2022/08/31 05:32:46;;;;;;;6.38;1.65;;;14.40;99.90;;;;;;5072128;28;20028;-54
2022/08/31 05:35:12;;;;;;;3.78;1.50;;;14.40;99.90;;;;;;5072027;28;20078;-55
2022/08/31 05:37:38;;;;;;;5.20;1.50;;;14.50;99.90;;;;;;5071732;28;20037;-55
2022/08/31 05:40:05;;;;;;;5.47;1.80;;;14.50;99.90;;;;;;5071735;28;20067;-55
2022/08/31 05:42:31;;;;;;;3.95;1.45;;;14.60;99.90;;;;;;5071875;28;20054;-55
2022/08/31 05:44:57;;;;;;;7.38;1.50;;;14.60;99.90;;;;;;5071740;28;20435;-55
2022/08/31 05:47:22;;;;;;;3.78;1.55;;;14.70;99.90;;;;;;5071708;28;20174;-55
2022/08/31 05:49:48;;;;;;;5.32;1.58;;;14.70;99.90;;;;;;5071869;28;20024;-56
2022/08/31 05:52:14;;;;;;;3.85;1.67;;;14.70;99.90;;;;;;5069412;28;20048;-56
2022/08/31 05:54:41;;;;;;;4.25;1.77;;;14.80;99.90;;;;;;5071740;28;20112;-55
2022/08/31 05:57:06;;;;;;;4.88;1.55;;;14.90;99.90;;;;;;5071675;28;20516;-55
2022/08/31 05:59:33;;;;;;;4.57;1.77;;;14.90;99.90;;;;;;5071343;28;20040;-56
2022/08/31 06:02:00;;;;;;;5.15;1.92;;;14.90;99.90;;;;;;5071310;28;20375;-56
2022/08/31 06:04:26;;;;;;;5.13;1.83;;;15.00;99.90;;;;;;5071013;28;20101;-56
2022/08/31 06:06:52;;;;;;;6.00;2.10;;;15.00;99.90;;;;;;5071424;28;20036;-57
2022/08/31 06:09:18;;;;;;;4.05;1.70;;;15.10;99.90;;;;;;5070241;28;20016;-57
2022/08/31 06:11:44;;;;;;;7.88;1.92;;;15.10;99.90;;;;;;5071509;28;20369;-55
2022/08/31 06:14:10;;;;;;;7.55;1.98;;;15.20;99.90;;;;;;5071306;28;20048;-56
2022/08/31 06:16:37;;;;;;;6.50;1.92;;;15.20;99.90;;;;;;5071125;28;20033;-56
2022/08/31 06:19:06;;;;;;;4.53;2.13;;;15.30;99.90;;;;;;5071290;28;20031;-54
2022/08/31 06:21:33;;;;;;;9.88;1.92;;;15.30;99.90;;;;;;5071195;28;20016;-56
2022/08/31 06:24:02;;;;;;;4.78;1.65;;;15.40;99.90;;;;;;5071158;28;20036;-55
2022/08/31 06:26:30;;;;;;;5.47;1.88;;;15.50;99.90;;;;;;5071304;28;20112;-54
2022/08/31 06:28:58;;;;;;;5.00;1.90;;;15.60;99.90;;;;;;5071037;28;20016;-55
2022/08/31 06:31:29;;;;;;;7.38;2.03;;;15.80;99.90;;;;;;5070826;28;20525;-55
2022/08/31 06:33:56;;;;;;;4.75;1.80;;;16.00;99.90;;;;;;5070898;28;20038;-60
2022/08/31 06:36:24;;;;;;;6.78;1.55;;;16.70;99.90;;;;;;5071064;28;20145;-54
2022/08/31 06:38:52;;;;;;;3.42;1.40;;;17.60;99.90;;;;;;5070978;28;20035;-54
2022/08/31 06:41:20;;;;;;;6.05;1.67;;;18.40;99.90;;;;;;5072532;28;20479;-55
2022/08/31 06:43:46;;;;;;;6.03;1.63;;;19.10;99.90;;;;;;5066991;28;20055;-55
2022/08/31 06:46:13;;;;;;;3.75;1.40;;;19.60;99.90;;;;;;5070681;28;20522;-55
2022/08/31 06:48:40;;;;;;;5.28;1.55;;;20.00;99.90;;;;;;5070798;28;20020;-56
2022/08/31 06:51:07;;;;;;;6.00;1.40;;;20.10;99.90;;;;;;5070416;28;20017;-53
2022/08/31 06:53:34;;;;;;;6.20;1.70;;;19.70;99.90;;;;;;5070717;28;20029;-56
2022/08/31 06:56:09;;;;;;;7.05;1.75;;;19.50;99.90;;;;;;5070708;28;20036;-55
2022/08/31 06:58:34;;;;;;;8.18;2.10;;;19.40;99.90;;;;;;5070688;28;20024;-56
2022/08/31 07:01:10;;;;;;;3.88;1.30;;;19.80;99.90;;;;;;5070276;28;20089;-55
2022/08/31 07:03:37;;;;;;;5.53;1.58;;;20.50;99.90;;;;;;5067790;28;20115;-56
2022/08/31 07:06:13;;;;;;;4.70;1.65;;;21.40;99.90;;;;;;5074613;28;20028;-55
2022/08/31 07:08:40;;;;;;;4.43;1.58;;;22.10;97.80;;;;;;5074860;28;20037;-55
2022/08/31 07:11:19;;;;;;;4.80;1.27;;;22.80;96.70;;;;;;5074395;28;20024;-54
2022/08/31 07:13:47;;;;;;;5.00;1.30;;;23.80;96.40;;;;;;5074671;28;20077;-54
2022/08/31 07:16:15;;;;;;;6.88;1.67;;;24.60;94.20;;;;;;5074460;28;20070;-54
2022/08/31 07:18:41;;;;;;;4.17;1.33;;;24.50;93.10;;;;;;5074443;28;20048;-54
2022/08/31 07:21:24;;;;;;;4.88;1.52;;;24.80;92.40;;;;;;5074558;28;20020;-54
2022/08/31 07:23:50;;;;;;;7.03;1.67;;;25.10;92.40;;;;;;5074343;28;20515;-55
2022/08/31 07:26:26;;;;;;;4.70;1.27;;;25.00;91.10;;;;;;5073240;28;20553;-54
2022/08/31 07:28:54;;;;;;;6.82;1.38;;;26.10;92.40;;;;;;5074425;28;20054;-54
2022/08/31 07:31:22;;;;;;;5.65;1.60;;;26.40;90.40;;;;;;5071880;28;20028;-55
2022/08/31 07:33:50;;;;;;;6.15;1.63;;;26.40;89.60;;;;;;5073905;28;20016;-53
2022/08/31 07:36:16;;;;;;;5.35;1.40;;;27.00;89.80;;;;;;5067043;28;20060;-53
2022/08/31 07:44:13;;;;;;;3.95;1.00;;;27.70;86.50;;;;;;5072588;28;20089;-54
2022/08/31 07:46:39;;;;;;;5.70;1.80;;;28.10;84.50;;;;;;5072974;28;20153;-54
2022/08/31 07:49:12;;;;;;;6.40;1.50;;;28.30;83.60;;;;;;5070794;28;20115;-52
2022/08/31 07:51:49;;;;;;;5.63;1.40;;;28.40;84.10;;;;;;5070171;28;20063;-53
2022/08/31 07:54:21;;;;;;;3.80;1.13;;;28.70;82.60;;;;;;5064188;28;20031;-53
2022/08/31 07:56:48;;;;;;;5.00;1.33;;;29.20;80.00;;;;;;5067075;28;20036;-53
2022/08/31 07:59:16;;;;;;;4.57;1.20;;;28.90;80.20;;;;;;5068590;28;20033;-54
2022/08/31 08:01:42;;;;;;;5.53;1.20;;;29.30;81.60;;;;;;5072865;28;20033;-54
2022/08/31 08:04:12;;;;;;;4.82;1.20;;;29.20;78.30;;;;;;5072323;28;20120;-52
2022/08/31 08:06:38;;;;;;;5.22;1.60;;;29.00;79.20;;;;;;5067784;28;20041;-53
2022/08/31 08:09:06;;;;;;;4.97;1.33;;;29.00;78.90;;;;;;5065968;28;20025;-55
2022/08/31 08:11:35;;;;;;;6.10;1.27;;;28.90;79.80;;;;;;5073531;28;20028;-52
2022/08/31 08:14:05;;;;;;;5.28;1.23;;;29.60;77.70;;;;;;5073342;28;20020;-55
2022/08/31 08:16:32;;;;;;;5.28;1.38;;;30.20;76.30;;;;;;5071707;28;20047;-54
2022/08/31 08:18:58;;;;;;;5.20;1.30;;;30.20;78.10;;;;;;5063857;28;20021;-53
2022/08/31 08:21:24;;;;;;;4.40;1.40;;;30.10;75.40;;;;;;5064650;28;20039;-54
2022/08/31 08:23:50;;;;;;;3.63;1.33;;;30.60;74.20;;;;;;5072665;28;20124;-53
2022/08/31 08:26:16;;;;;;;6.03;1.73;;;30.80;73.40;;;;;;5072548;28;20116;-55
2022/08/31 08:28:41;;;;;;;6.28;1.45;;;30.20;71.50;;;;;;5072933;28;20464;-55
2022/08/31 08:31:13;;;;;;;6.88;1.40;;;31.20;74.40;;;;;;5070568;28;20020;-56
2022/08/31 08:33:39;;;;;;;4.90;1.20;;;31.00;71.40;;;;;;5065824;28;20023;-54
2022/08/31 08:36:06;;;;;;;3.42;1.20;;;31.60;71.30;;;;;;5070524;28;20422;-55
2022/08/31 08:38:34;;;;;;;6.45;1.75;;;32.20;70.10;;;;;;5072615;28;20056;-55
2022/08/31 08:41:03;;;;;;;6.80;1.43;;;32.20;68.20;;;;;;5071728;28;20537;-55
2022/08/31 08:43:34;;;;;;;5.50;1.25;;;32.20;67.70;;;;;;5071296;28;20108;-54
2022/08/31 08:46:02;;;;;;;5.15;1.60;;;32.60;66.80;;;;;;5072202;28;20036;-55
2022/08/31 08:48:32;;;;;;;4.20;1.40;;;33.20;67.70;;;;;;5072325;28;20074;-54
2022/08/31 08:51:00;;;;;;;4.18;1.25;;;32.80;63.30;;;;;;5069975;28;20017;-56
2022/08/31 08:53:29;;;;;;;6.22;1.30;;;31.90;66.40;;;;;;5067339;28;20110;-54
2022/08/31 08:55:55;;;;;;;7.57;1.40;;;31.30;66.60;;;;;;5071684;28;20514;-53
2022/08/31 08:58:23;;;;;;;3.53;1.63;;;31.10;67.40;;;;;;5072247;28;20028;-53
2022/08/31 09:00:51;;;;;;;7.72;1.63;;;30.60;70.10;;;;;;5072327;28;20066;-55
2022/08/31 09:03:36;;;;;;;4.70;1.58;;;31.30;67.80;;;;;;5072465;28;20082;-55
2022/08/31 09:06:08;;;;;;;9.82;1.65;;;32.10;68.10;;;;;;5068609;28;20025;-54
2022/08/31 09:08:59;;;;;;;6.80;1.60;;;32.10;65.60;;;;;;5072259;28;20028;-54
2022/08/31 09:11:51;;;;;;;7.70;1.38;;;31.90;66.20;;;;;;5070121;28;20479;-55
2022/08/31 09:14:52;;;;;;;5.97;1.52;;;31.60;66.10;;;;;;5071506;28;20063;-54
2022/08/31 09:17:45;;;;;;;5.82;1.58;;;31.10;68.70;;;;;;5071852;28;20041;-53
2022/08/31 09:20:12;;;;;;;7.05;1.77;;;31.30;69.50;;;;;;5073133;28;20396;-51
2022/08/31 09:22:49;;;;;;;8.43;1.35;;;31.80;65.80;;;;;;5067681;28;20086;-48
2022/08/31 09:25:50;;;;;;;4.88;1.60;;;31.60;67.10;;;;;;5069656;28;20046;-51
2022/08/31 09:28:17;;;;;;;4.55;1.63;;;30.50;67.70;;;;;;5069231;28;20028;-53
2022/08/31 09:30:52;;;;;;;7.13;1.83;;;30.80;68.80;;;;;;5065452;28;20479;-48
2022/08/31 09:33:49;;;;;;;7.38;1.50;;;30.90;68.30;;;;;;5069367;28;20032;-48
2022/08/31 09:36:22;;;;;;;5.13;1.33;;;30.20;68.20;;;;;;5053754;28;20403;-47
2022/08/31 09:38:48;;;;;;;6.43;1.55;;;29.40;69.70;;;;;;5064944;28;20044;-47
2022/08/31 09:41:29;;;;;;;9.73;1.60;;;29.80;70.70;;;;;;5065129;28;20143;-47
2022/08/31 09:44:23;;;;;;;6.50;1.50;;;29.20;70.50;;;;;;5064119;28;20012;-50
2022/08/31 09:46:52;;;;;;;6.25;1.52;;;29.20;70.30;;;;;;5071104;28;20037;-50
2022/08/31 09:49:19;;;;;;;;;;;29.40;71.50;;;;;;5075524;28;20032;-55
2022/08/31 09:51:46;;;;;;;9.35;1.42;;;29.50;73.50;;;;;;5072064;28;19923;-54
2022/08/31 09:57:02;;;;;;;8.60;1.75;;;29.50;69.90;;;;;;5064053;28;20149;-55
2022/08/31 09:59:42;;;;;;;5.55;1.90;;;30.00;72.20;;;;;;5066785;28;20021;-57
2022/08/31 10:02:11;;;;;;;4.45;1.35;;;29.60;69.00;;;;;;5061942;28;20040;-52
2022/08/31 10:04:50;;;;;;;7.15;1.40;;;29.30;72.20;;;;;;5064801;28;20514;-46
2022/08/31 10:07:16;;;;;;;6.18;1.33;;;29.80;71.90;;;;;;5064121;28;20491;-46
2022/08/31 10:09:45;;;;;;;5.65;1.60;;;30.40;70.40;;;;;;5068299;28;20032;-47
2022/08/31 10:12:21;;;;;;;5.38;1.17;;;30.00;68.40;;;;;;5069899;28;20125;-51
2022/08/31 10:14:53;;;;;;;4.70;1.38;;;29.60;71.70;;;;;;5067190;28;20479;-48
2022/08/31 10:17:28;;;;;;;10.00;2.33;;;29.60;69.80;;;;;;5062584;28;20067;-50
2022/08/31 10:20:07;;;;;;;5.95;1.40;;;29.90;70.80;;;;;;5076831;28;20031;-52
2022/08/31 10:22:40;;;;;;;5.97;1.40;;;29.30;69.70;;;;;;5068466;28;21274;-51
2022/08/31 10:25:10;;;;;;;5.88;1.55;;;29.50;68.60;;;;;;5068258;28;20036;-57
2022/08/31 10:27:47;;;;;;;4.90;1.48;;;29.50;71.20;;;;;;5067956;28;20479;-52
2022/08/31 10:30:33;;;;;;;11.45;1.48;;;29.00;70.60;;;;;;5073967;28;20066;-53
2022/08/31 10:33:12;;;;;;;5.50;1.13;;;29.20;69.40;;;;;;5074072;28;20502;-50
2022/08/31 10:35:44;;;;;;;5.82;1.58;;;28.80;72.20;;;;;;5077869;28;20074;-52
2022/08/31 10:38:31;;;;;;;7.40;1.48;;;29.10;73.30;;;;;;5072757;28;20044;-48
2022/08/31 10:41:40;;;;;;;6.88;1.52;;;28.60;72.20;;;;;;5073024;28;20029;-50
2022/08/31 10:44:25;;;;;;;7.20;1.75;;;29.10;72.30;;;;;;5007801;28;20441;-49
2022/08/31 10:46:53;;;;;;;7.40;1.70;;;29.00;71.90;;;;;;5005987;28;20033;-48
2022/08/31 10:49:22;;;;;;;5.10;1.52;;;28.10;72.80;;;;;;5041073;28;20166;-49
2022/08/31 10:52:09;;;;;;;;;;;29.10;76.00;;;;;;5065836;28;20072;-52
2022/08/31 10:54:53;;;;;;;6.22;1.50;;;28.90;71.40;;;;;;5079114;28;19904;-46
2022/08/31 10:57:31;;;;;;;4.93;1.80;;;28.00;73.40;;;;;;5070520;28;20672;-51
2022/08/31 11:00:48;;;;;;;5.03;1.52;;;26.90;75.00;;;;;;5066900;28;20472;-52
2022/08/31 11:03:21;;;;;;;6.53;1.90;;;26.90;78.80;;;;;;5064131;28;20060;-47
2022/08/31 11:05:54;;;;;;;4.50;1.25;;;27.60;73.60;;;;;;5064268;28;20041;-46
2022/08/31 11:08:36;;;;;;;6.68;1.50;;;27.40;74.10;;;;;;5053781;28;20028;-53
2022/08/31 11:11:07;;;;;;;3.97;1.05;;;27.50;74.20;;;;;;5064448;28;20033;-52
2022/08/31 11:14:01;;;;;;;6.95;1.38;;;28.00;75.30;;;;;;5067336;28;20459;-51
2022/08/31 11:16:37;;;;;;;2.95;1.10;;;28.40;72.50;;;;;;5063225;28;20035;-55
2022/08/31 11:19:14;;;;;;;4.13;1.45;;;27.80;72.60;;;;;;5064173;28;20036;-57
2022/08/31 11:22:19;;;;;;;6.00;1.40;;;27.50;73.10;;;;;;5066502;28;20039;-52
2022/08/31 11:25:08;;;;;;;4.90;1.40;;;26.70;74.40;;;;;;5056496;28;20022;-48
2022/08/31 11:27:38;;;;;;;4.60;1.55;;;26.00;76.10;;;;;;5055946;28;20036;-51
2022/08/31 11:30:23;;;;;;;5.53;1.55;;;25.50;77.50;;;;;;5058835;28;20113;-49
2022/08/31 11:33:10;;;;;;;5.13;1.40;;;25.30;82.10;;;;;;5070201;28;20479;-53
2022/08/31 11:36:01;;;;;;;5.32;1.27;;;25.90;79.10;;;;;;5066904;28;20699;-49
2022/08/31 11:38:47;;;;;;;4.30;1.52;;;25.80;78.80;;;;;;5064144;28;20124;-50
2022/08/31 11:41:31;;;;;;;4.53;1.33;;;25.70;77.80;;;;;;5064310;28;20044;-48
2022/08/31 11:44:02;;;;;;;3.55;1.55;;;25.40;78.00;;;;;;5067832;28;20016;-47
2022/08/31 11:46:28;;;;;;;4.93;1.17;;;25.30;79.50;;;;;;5065342;28;20036;-50
2022/08/31 11:48:53;;;;;;;5.05;1.55;;;25.70;81.50;;;;;;5068371;28;20025;-50
2022/08/31 11:51:31;;;;;;;5.97;1.30;;;26.10;81.00;;;;;;5070478;28;20308;-50
2022/08/31 11:54:00;;;;;;;3.00;1.20;;;26.60;76.70;;;;;;5066927;28;20154;-46
2022/08/31 11:56:37;;;;;;;5.97;1.25;;;26.20;77.00;;;;;;5072431;28;20036;-48
2022/08/31 11:59:30;;;;;;;9.90;1.60;;;26.10;75.70;;;;;;5075179;28;20029;-46
2022/08/31 12:02:02;;;;;;;3.13;1.13;;;25.50;77.70;;;;;;5071177;28;20376;-52
2022/08/31 12:04:45;;;;;;;6.65;1.40;;;24.80;78.20;;;;;;5068512;28;20067;-52
2022/08/31 12:07:17;;;;;;;5.25;1.20;;;24.80;78.80;;;;;;5066271;28;20608;-45
2022/08/31 12:10:16;;;;;;;3.08;1.00;;;25.00;79.10;;;;;;5064901;28;20024;-56
2022/08/31 12:12:51;;;;;;;3.10;1.25;;;24.60;79.40;;;;;;5071403;28;20047;-53
2022/08/31 12:15:26;;;;;;;7.45;1.85;;;24.50;82.10;;;;;;5070804;28;20495;-49
2022/08/31 12:18:39;;;;;;;3.50;1.30;;;24.50;81.50;;;;;;5072972;28;20032;-49
2022/08/31 12:24:36;;;;;;;4.22;1.42;;;24.80;81.40;;;;;;5070053;28;20089;-46
2022/08/31 12:27:21;;;;;;;5.00;1.40;;;24.90;82.30;;;;;;5068659;28;20036;-50
2022/08/31 12:29:48;;;;;;;6.70;1.50;;;25.10;81.90;;;;;;5072354;28;20031;-48
2022/08/31 12:32:28;;;;;;;5.95;1.30;;;24.90;79.50;;;;;;5064415;28;20035;-49
2022/08/31 12:34:57;;;;;;;4.13;1.20;;;24.90;81.00;;;;;;5071669;28;20024;-46
2022/08/31 12:37:27;;;;;;;3.55;1.20;;;24.90;80.40;;;;;;5071643;28;20476;-49
2022/08/31 12:40:15;;;;;;;6.80;1.65;;;24.90;79.40;;;;;;5071789;28;20029;-53
2022/08/31 12:43:09;;;;;;;4.50;1.17;;;24.90;80.20;;;;;;5071115;28;20407;-49
2022/08/31 12:45:53;;;;;;;4.65;1.30;;;25.50;80.00;;;;;;5065574;28;20427;-51
2022/08/31 12:48:36;;;;;;;4.60;1.00;;;25.60;78.30;;;;;;5061692;28;20028;-51
2022/08/31 12:51:27;;;;;;;3.90;1.48;;;25.50;76.50;;;;;;5070407;28;20352;-53
2022/08/31 12:54:08;;;;;;;3.67;1.20;;;25.50;78.30;;;;;;5070872;28;20029;-51
2022/08/31 12:56:34;;;;;;;5.13;1.25;;;25.50;78.60;;;;;;5070683;28;20066;-49
2022/08/31 12:59:13;;;;;;;5.43;1.27;;;25.30;76.80;;;;;;5072174;28;20056;-49
2022/08/31 13:01:42;;;;;;;6.03;1.50;;;25.00;78.70;;;;;;5071532;28;20480;-54
2022/08/31 13:04:08;;;;;;;;;;;24.60;79.30;;;;;;5072593;28;20044;-50
2022/08/31 13:06:36;;;;;;;4.30;1.23;;;24.70;80.90;;;;;;5071489;28;19952;-52
2022/08/31 13:09:04;;;;;;;2.75;1.02;;;24.40;79.30;;;;;;5069509;28;20112;-48
2022/08/31 13:11:29;;;;;;;2.92;1.25;;;24.40;79.60;;;;;;5071768;28;20021;-51
2022/08/31 13:14:23;;;;;;;4.20;1.45;;;24.60;79.80;;;;;;5071687;28;20036;-53
2022/08/31 13:17:09;;;;;;;2.47;1.00;;;24.80;79.50;;;;;;5070720;28;20033;-52
2022/08/31 13:19:36;;;;;;;5.57;1.20;;;24.60;77.90;;;;;;5070943;28;20396;-47
2022/08/31 13:22:08;;;;;;;4.28;1.02;;;24.50;79.90;;;;;;5071588;28;20020;-51
2022/08/31 13:24:41;;;;;;;2.50;1.13;;;24.20;77.70;;;;;;5071471;28;20539;-52